createdAt,value
2023-01-25T00:01:34.120Z,5.45
2023-01-25T00:04:00.756Z,5.41
2023-01-25T00:06:27.553Z,5.20
2023-01-25T00:08:54.152Z,5.30
2023-01-25T00:11:20.791Z,5.40
2023-01-25T00:13:47.406Z,5.39
2023-01-25T00:16:14.118Z,5.35
2023-01-25T00:18:40.771Z,5.40
2023-01-25T00:21:21.704Z,5.43
2023-01-25T00:23:48.488Z,5.55
2023-01-25T00:26:15.684Z,5.49
2023-01-25T00:28:42.516Z,5.52
2023-01-25T00:31:11.450Z,5.57
2023-01-25T00:33:37.937Z,5.63
2023-01-25T00:36:23.252Z,5.57
2023-01-25T00:38:49.989Z,5.64
2023-01-25T00:41:16.634Z,5.52
2023-01-25T00:43:43.295Z,5.44
2023-01-25T00:46:09.988Z,5.45
2023-01-25T00:48:36.723Z,5.35
2023-01-25T00:51:03.410Z,5.43
2023-01-25T00:53:30.173Z,5.46
2023-01-25T00:55:56.828Z,5.34
2023-01-25T00:58:23.580Z,5.34
2023-01-25T01:00:50.266Z,5.27
2023-01-25T01:03:16.912Z,5.29
2023-01-25T01:05:43.703Z,5.18
2023-01-25T01:08:10.545Z,5.15
2023-01-25T01:10:37.224Z,5.23
2023-01-25T01:13:03.932Z,5.03
2023-01-25T01:15:30.650Z,5.07
2023-01-25T01:17:57.355Z,5.27
2023-01-25T01:20:24.062Z,5.19
2023-01-25T01:22:52.584Z,5.06
2023-01-25T01:25:19.381Z,5.17
2023-01-25T01:27:46.018Z,5.15
2023-01-25T01:30:12.993Z,5.14
2023-01-25T01:32:39.724Z,4.94
2023-01-25T01:35:07.346Z,5.00
2023-01-25T01:37:34.159Z,5.18
2023-01-25T01:40:02.001Z,5.16
2023-01-25T01:42:28.615Z,5.24
2023-01-25T01:44:55.369Z,5.19
2023-01-25T01:47:22.659Z,5.18
2023-01-25T01:49:54.283Z,5.27
2023-01-25T01:52:23.719Z,5.31
2023-01-25T01:55:12.288Z,5.34
2023-01-25T01:57:47.488Z,5.35
2023-01-25T02:00:17.103Z,5.36
2023-01-25T02:02:43.877Z,5.34
2023-01-25T02:05:25.556Z,5.16
2023-01-25T02:07:52.261Z,5.16
2023-01-25T02:10:18.968Z,5.13
2023-01-25T02:12:45.797Z,5.01
2023-01-25T02:15:12.547Z,4.99
2023-01-25T02:17:39.498Z,5.16
2023-01-25T02:20:29.230Z,5.11
2023-01-25T02:23:24.136Z,5.03
2023-01-25T02:25:50.789Z,5.10
2023-01-25T02:28:23.486Z,5.20
2023-01-25T02:30:50.197Z,5.32
2023-01-25T02:33:16.870Z,5.27
2023-01-25T02:35:48.415Z,5.30
2023-01-25T02:38:16.108Z,5.35
2023-01-25T02:40:59.241Z,5.27
2023-01-25T02:43:28.352Z,5.35
2023-01-25T02:46:07.928Z,5.33
2023-01-25T02:48:34.617Z,5.28
2023-01-25T02:51:01.240Z,5.33
2023-01-25T02:53:27.874Z,5.11
2023-01-25T02:55:54.607Z,4.98
2023-01-25T02:58:21.202Z,5.01
2023-01-25T03:00:47.812Z,5.07
2023-01-25T03:03:14.573Z,5.18
2023-01-25T03:05:41.177Z,5.00
2023-01-25T03:08:07.911Z,4.92
2023-01-25T03:10:34.573Z,4.93
2023-01-25T03:13:01.207Z,4.81
2023-01-25T03:15:27.861Z,4.91
2023-01-25T03:17:55.904Z,5.04
2023-01-25T03:20:22.740Z,4.99
2023-01-25T03:22:49.398Z,5.09
2023-01-25T03:25:16.141Z,5.16
2023-01-25T03:27:42.780Z,5.28
2023-01-25T03:30:11.140Z,5.31
2023-01-25T03:32:37.759Z,5.43
2023-01-25T03:35:04.985Z,5.35
2023-01-25T03:37:31.663Z,5.36
2023-01-25T03:39:58.323Z,5.54
2023-01-25T03:42:24.948Z,5.39
2023-01-25T03:44:51.555Z,5.41
2023-01-25T03:47:18.283Z,5.25
2023-01-25T03:49:44.956Z,5.38
2023-01-25T03:52:11.706Z,5.41
2023-01-25T03:54:38.361Z,5.25
2023-01-25T03:57:05.016Z,5.36
2023-01-25T03:59:31.711Z,5.16
2023-01-25T04:01:58.367Z,5.14
2023-01-25T04:04:25.011Z,5.01
2023-01-25T04:06:51.671Z,5.04
2023-01-25T04:09:18.301Z,4.95
2023-01-25T04:11:44.908Z,4.95
2023-01-25T04:14:11.534Z,4.86
2023-01-25T04:16:38.210Z,4.75
2023-01-25T04:19:04.878Z,4.84
2023-01-25T04:21:33.776Z,4.82
2023-01-25T04:24:00.460Z,4.64
2023-01-25T04:26:27.097Z,4.62
2023-01-25T04:28:53.723Z,4.70
2023-01-25T04:31:20.494Z,4.65
2023-01-25T04:33:47.331Z,4.64
2023-01-25T04:36:14.244Z,4.64
2023-01-25T04:38:40.904Z,4.69
2023-01-25T04:41:07.617Z,4.50
2023-01-25T04:43:34.316Z,4.53
2023-01-25T04:46:02.362Z,4.40
2023-01-25T04:48:29.051Z,4.44
2023-01-25T04:50:55.703Z,4.56
2023-01-25T04:53:22.390Z,4.50
2023-01-25T04:55:49.277Z,4.53
2023-01-25T04:58:15.993Z,4.49
2023-01-25T05:00:42.617Z,4.57
2023-01-25T05:03:09.338Z,4.44
2023-01-25T05:05:35.991Z,4.31
2023-01-25T05:08:02.793Z,4.52
2023-01-25T05:10:29.413Z,4.44
2023-01-25T05:12:56.073Z,4.56
2023-01-25T05:15:23.655Z,4.57
2023-01-25T05:17:50.311Z,4.58
2023-01-25T05:20:16.983Z,4.57
2023-01-25T05:22:43.669Z,4.56
2023-01-25T05:25:10.716Z,4.53
2023-01-25T05:27:37.503Z,4.38
2023-01-25T05:30:04.505Z,4.41
2023-01-25T05:32:31.121Z,4.41
2023-01-25T05:34:59.886Z,4.31
2023-01-25T05:37:27.472Z,4.36
2023-01-25T05:39:54.184Z,4.42
2023-01-25T05:42:20.967Z,4.40
2023-01-25T05:44:48.147Z,4.39
2023-01-25T05:47:16.013Z,4.26
2023-01-25T05:49:42.674Z,4.30
2023-01-25T05:52:13.695Z,4.30
2023-01-25T05:54:40.317Z,4.33
2023-01-25T05:57:07.926Z,4.29
2023-01-25T05:59:34.532Z,4.26
2023-01-25T06:02:01.340Z,4.26
2023-01-25T06:04:28.009Z,4.26
2023-01-25T06:06:54.660Z,4.29
2023-01-25T06:09:21.296Z,4.20
2023-01-25T06:11:48.013Z,4.14
2023-01-25T06:14:14.690Z,4.26
2023-01-25T06:16:41.383Z,4.22
2023-01-25T06:19:08.160Z,4.22
2023-01-25T06:21:34.831Z,4.24
2023-01-25T06:24:01.542Z,4.17
2023-01-25T06:26:28.177Z,4.17
2023-01-25T06:28:54.802Z,4.25
2023-01-25T06:31:21.515Z,4.23
2023-01-25T06:33:49.449Z,4.22
2023-01-25T06:36:17.003Z,4.24
2023-01-25T06:38:43.640Z,4.25
2023-01-25T06:41:12.175Z,4.29
2023-01-25T06:43:39.029Z,4.27
2023-01-25T06:46:07.254Z,4.35
2023-01-25T06:48:34.007Z,4.33
2023-01-25T06:51:02.045Z,4.33
2023-01-25T06:53:30.479Z,4.34
2023-01-25T06:56:10.920Z,4.28
2023-01-25T06:58:38.445Z,4.32
2023-01-25T07:01:13.145Z,4.22
2023-01-25T07:03:39.847Z,4.24
2023-01-25T07:06:07.614Z,4.31
2023-01-25T07:08:34.400Z,4.36
2023-01-25T07:11:05.322Z,4.34
2023-01-25T07:13:32.277Z,4.38
2023-01-25T07:16:03.765Z,4.35
2023-01-25T07:18:30.826Z,4.36
2023-01-25T07:21:09.716Z,4.34
2023-01-25T07:23:36.314Z,4.20
2023-01-25T07:26:02.920Z,4.26
2023-01-25T07:28:30.617Z,4.22
2023-01-25T07:30:57.292Z,4.33
2023-01-25T07:33:23.935Z,4.42
2023-01-25T07:35:50.699Z,4.46
2023-01-25T07:38:17.379Z,4.40
2023-01-25T07:40:44.031Z,4.46
2023-01-25T07:43:10.733Z,4.38
2023-01-25T07:45:37.355Z,4.38
2023-01-25T07:48:08.277Z,4.41
2023-01-25T07:50:34.920Z,4.48
2023-01-25T07:53:01.546Z,4.55
2023-01-25T07:55:28.192Z,4.60
2023-01-25T07:57:54.896Z,4.59
2023-01-25T08:00:23.890Z,4.75
2023-01-25T08:02:51.131Z,4.82
2023-01-25T08:05:17.752Z,4.90
2023-01-25T08:07:44.449Z,5.02
2023-01-25T08:10:11.250Z,4.95
2023-01-25T08:12:37.849Z,5.12
2023-01-25T08:15:04.879Z,5.22
2023-01-25T08:17:31.492Z,5.34
2023-01-25T08:19:59.208Z,5.37
2023-01-25T08:22:25.998Z,5.47
2023-01-25T08:24:52.616Z,5.55
2023-01-25T08:27:19.267Z,5.66
2023-01-25T08:29:46.561Z,5.75
2023-01-25T08:32:13.153Z,5.83
2023-01-25T08:34:39.871Z,5.81
2023-01-25T08:37:06.553Z,5.92
2023-01-25T08:39:33.229Z,5.81
2023-01-25T08:41:59.915Z,5.95
2023-01-25T08:44:26.779Z,5.96
2023-01-25T08:46:53.467Z,5.94
2023-01-25T08:49:20.145Z,6.02
2023-01-25T08:51:46.764Z,5.89
2023-01-25T08:54:13.436Z,6.03
2023-01-25T08:56:40.432Z,6.11
2023-01-25T08:59:07.426Z,6.19
2023-01-25T09:01:34.160Z,6.10
2023-01-25T09:04:01.074Z,6.22
2023-01-25T09:06:27.804Z,6.24
2023-01-25T09:08:54.587Z,6.30
2023-01-25T09:11:22.229Z,6.35
2023-01-25T09:13:49.052Z,6.45
2023-01-25T09:16:20.283Z,6.54
2023-01-25T09:18:49.061Z,6.52
2023-01-25T09:21:17.144Z,6.55
2023-01-25T09:23:50.963Z,6.63
2023-01-25T09:26:24.451Z,6.64
2023-01-25T09:28:52.005Z,6.72
2023-01-25T09:31:22.329Z,6.68
2023-01-25T09:33:50.155Z,6.72
2023-01-25T09:36:16.797Z,6.78
2023-01-25T09:38:43.554Z,6.83
2023-01-25T09:41:58.156Z,6.83
2023-01-25T09:44:43.337Z,6.89
2023-01-25T09:47:31.179Z,6.98
2023-01-25T09:50:17.626Z,7.04
2023-01-25T09:53:04.419Z,7.08
2023-01-25T09:55:31.030Z,7.11
2023-01-25T09:57:57.906Z,7.07
2023-01-25T10:00:33.280Z,7.07
2023-01-25T10:03:13.855Z,7.31
2023-01-25T10:05:48.233Z,7.48
2023-01-25T10:08:57.000Z,7.27
2023-01-25T10:11:25.841Z,7.19
2023-01-25T10:13:52.454Z,7.27
2023-01-25T10:16:28.220Z,7.03
2023-01-25T10:19:26.080Z,7.44
2023-01-25T10:22:08.596Z,7.75
2023-01-25T10:24:51.011Z,7.82
2023-01-25T10:27:29.576Z,8.10
2023-01-25T10:29:57.059Z,8.22
2023-01-25T10:32:28.682Z,8.36
2023-01-25T10:34:57.479Z,8.18
2023-01-25T10:37:33.318Z,8.26
2023-01-25T10:40:14.574Z,8.39
2023-01-25T10:43:00.456Z,8.43
2023-01-25T10:45:27.116Z,8.51
2023-01-25T10:47:57.516Z,8.63
2023-01-25T10:50:39.175Z,8.70
2023-01-25T10:53:09.674Z,8.59
2023-01-25T10:55:36.334Z,8.62
2023-01-25T10:58:03.004Z,8.27
2023-01-25T11:00:36.434Z,8.23
2023-01-25T11:03:03.318Z,7.86
2023-01-25T11:05:38.979Z,8.07
2023-01-25T11:08:25.170Z,8.05
2023-01-25T11:10:52.374Z,8.21
2023-01-25T11:13:20.848Z,8.35
2023-01-25T11:16:13.448Z,7.73
2023-01-25T11:18:40.116Z,7.63
2023-01-25T11:21:13.057Z,7.92
2023-01-25T11:23:39.712Z,7.96
2023-01-25T11:26:17.769Z,7.90
2023-01-25T11:28:45.381Z,7.85
2023-01-25T11:31:12.894Z,8.00
2023-01-25T11:33:40.478Z,8.27
2023-01-25T11:36:16.215Z,8.31
2023-01-25T11:39:19.329Z,7.89
2023-01-25T11:42:08.746Z,7.72
2023-01-25T11:44:46.361Z,8.00
2023-01-25T11:47:25.916Z,8.06
2023-01-25T11:50:11.459Z,7.72
2023-01-25T11:53:06.181Z,7.94
2023-01-25T11:55:37.647Z,8.23
2023-01-25T11:58:29.175Z,7.52
2023-01-25T12:01:36.351Z,7.40
2023-01-25T12:04:21.198Z,7.32
2023-01-25T12:06:53.398Z,7.52
2023-01-25T12:09:44.448Z,7.72
2023-01-25T12:12:25.055Z,7.83
2023-01-25T12:14:57.598Z,7.83
2023-01-25T12:17:43.612Z,7.94
2023-01-25T12:20:17.334Z,8.26
2023-01-25T12:23:04.742Z,8.29
2023-01-25T12:26:00.545Z,8.23
2023-01-25T12:28:42.835Z,8.21
2023-01-25T12:31:38.535Z,8.25
2023-01-25T12:34:29.202Z,8.44
2023-01-25T12:36:55.817Z,8.46
2023-01-25T12:39:25.210Z,8.33
2023-01-25T12:41:58.748Z,7.94
2023-01-25T12:44:38.989Z,7.39
2023-01-25T12:47:18.237Z,7.49
2023-01-25T12:49:54.383Z,7.80
2023-01-25T12:52:24.521Z,7.75
2023-01-25T12:54:51.775Z,7.99
2023-01-25T12:57:33.303Z,8.10
2023-01-25T13:00:20.084Z,8.30
2023-01-25T13:03:20.669Z,8.51
2023-01-25T13:06:02.251Z,8.56
2023-01-25T13:08:37.534Z,8.43
2023-01-25T13:11:30.277Z,8.43
2023-01-25T13:14:15.573Z,8.54
2023-01-25T13:16:46.004Z,8.57
2023-01-25T13:19:31.030Z,8.50
2023-01-25T13:21:57.826Z,8.58
2023-01-25T13:24:28.033Z,8.61
2023-01-25T13:26:54.564Z,8.77
2023-01-25T13:29:44.427Z,8.68
2023-01-25T13:32:34.685Z,8.51
2023-01-25T13:35:01.383Z,8.18
2023-01-25T13:37:32.046Z,8.29
2023-01-25T13:40:34.528Z,8.23
2023-01-25T13:43:13.069Z,7.81
2023-01-25T13:45:40.641Z,7.78
2023-01-25T13:48:15.094Z,7.65
2023-01-25T13:50:50.405Z,7.79
2023-01-25T13:53:16.900Z,7.97
2023-01-25T13:55:45.222Z,7.83
2023-01-25T13:58:22.563Z,7.98
2023-01-25T14:00:57.166Z,7.81
2023-01-25T14:03:44.075Z,7.72
2023-01-25T14:06:22.532Z,7.79
2023-01-25T14:08:49.327Z,7.77
2023-01-25T14:11:25.636Z,7.78
2023-01-25T14:14:03.022Z,8.02
2023-01-25T14:16:30.579Z,8.08
2023-01-25T14:19:23.994Z,8.08
2023-01-25T14:21:58.066Z,7.99
2023-01-25T14:24:24.708Z,7.85
2023-01-25T14:26:51.379Z,7.96
2023-01-25T14:29:31.774Z,8.05
2023-01-25T14:31:59.533Z,8.11
2023-01-25T14:34:26.687Z,8.16
2023-01-25T14:37:25.455Z,8.15
2023-01-25T14:39:52.094Z,8.12
2023-01-25T14:42:18.751Z,8.09
2023-01-25T14:44:45.411Z,8.09
2023-01-25T14:47:31.446Z,8.10
2023-01-25T14:50:28.917Z,8.14
2023-01-25T14:52:55.686Z,8.11
2023-01-25T14:55:22.403Z,8.10
2023-01-25T14:57:49.072Z,7.96
2023-01-25T15:00:23.749Z,7.82
2023-01-25T15:03:00.065Z,7.76
2023-01-25T15:05:49.796Z,7.66
2023-01-25T15:08:37.347Z,7.68
2023-01-25T15:11:04.051Z,7.51
2023-01-25T15:13:30.659Z,7.16
2023-01-25T15:15:58.004Z,7.38
2023-01-25T15:18:50.304Z,7.23
2023-01-25T15:21:32.109Z,7.32
2023-01-25T15:23:59.923Z,7.34
2023-01-25T15:26:31.351Z,7.46
2023-01-25T15:28:59.563Z,7.54
2023-01-25T15:31:30.502Z,7.31
2023-01-25T15:33:57.308Z,7.15
2023-01-25T15:36:23.999Z,7.16
2023-01-25T15:38:50.635Z,7.12
2023-01-25T15:41:17.363Z,7.14
2023-01-25T15:43:44.353Z,7.11
2023-01-25T15:46:40.886Z,7.30
2023-01-25T15:49:07.789Z,7.30
2023-01-25T15:51:35.802Z,7.35
2023-01-25T15:54:02.589Z,7.48
2023-01-25T15:56:32.730Z,7.54
2023-01-25T15:59:00.541Z,7.53
2023-01-25T16:01:28.586Z,7.59
2023-01-25T16:03:55.952Z,7.48
2023-01-25T16:06:51.540Z,7.37
2023-01-25T16:09:25.751Z,7.36
2023-01-25T16:11:56.709Z,7.53
2023-01-25T16:14:24.758Z,7.63
2023-01-25T16:16:52.163Z,7.68
2023-01-25T16:19:20.344Z,7.61
2023-01-25T16:21:47.080Z,7.58
2023-01-25T16:24:13.814Z,7.49
2023-01-25T16:26:54.350Z,7.50
2023-01-25T16:29:21.356Z,7.45
2023-01-25T16:31:48.086Z,7.57
2023-01-25T16:34:14.765Z,7.63
2023-01-25T16:36:41.418Z,7.59
2023-01-25T16:39:22.808Z,7.59
2023-01-25T16:41:49.524Z,7.55
2023-01-25T16:44:16.492Z,7.57
2023-01-25T16:46:43.406Z,7.57
2023-01-25T16:49:18.938Z,7.52
2023-01-25T16:51:45.635Z,7.54
2023-01-25T16:54:12.291Z,7.59
2023-01-25T16:56:38.949Z,7.49
2023-01-25T16:59:05.781Z,7.53
2023-01-25T17:01:32.512Z,7.57
2023-01-25T17:03:59.268Z,7.54
2023-01-25T17:06:27.620Z,7.45
2023-01-25T17:09:00.347Z,7.49
2023-01-25T17:11:27.313Z,7.52
2023-01-25T17:13:56.955Z,7.43
2023-01-25T17:16:24.484Z,7.37
2023-01-25T17:18:58.938Z,7.43
2023-01-25T17:21:25.988Z,7.36
2023-01-25T17:23:52.720Z,7.41
2023-01-25T17:26:20.427Z,7.42
2023-01-25T17:28:47.368Z,7.45
2023-01-25T17:31:33.439Z,7.45
2023-01-25T17:34:04.567Z,7.44
2023-01-25T17:36:31.302Z,7.34
2023-01-25T17:39:04.776Z,7.15
2023-01-25T17:41:31.537Z,7.09
2023-01-25T17:43:58.379Z,7.11
2023-01-25T17:46:26.663Z,7.01
2023-01-25T17:48:53.809Z,6.82
2023-01-25T17:51:20.891Z,6.78
2023-01-25T17:53:48.210Z,6.75
2023-01-25T17:56:14.905Z,6.84
2023-01-25T17:58:42.680Z,6.47
2023-01-25T18:01:14.057Z,6.53
2023-01-25T18:03:41.797Z,6.53
2023-01-25T18:06:08.499Z,6.52
2023-01-25T18:08:42.393Z,6.53
2023-01-25T18:11:09.484Z,6.57
2023-01-25T18:13:40.423Z,6.51
2023-01-25T18:16:07.427Z,6.68
2023-01-25T18:18:34.119Z,6.74
2023-01-25T18:21:11.670Z,6.79
2023-01-25T18:23:38.657Z,6.63
2023-01-25T18:26:05.888Z,6.77
2023-01-25T18:28:32.791Z,6.54
2023-01-25T18:31:04.412Z,6.54
2023-01-25T18:33:31.283Z,6.53
2023-01-25T18:35:57.916Z,6.65
2023-01-25T18:38:24.628Z,6.72
2023-01-25T18:40:51.318Z,6.81
2023-01-25T18:43:17.959Z,6.88
2023-01-25T18:45:44.667Z,6.88
2023-01-25T18:48:12.043Z,6.88
2023-01-25T18:50:42.012Z,6.95
2023-01-25T18:53:09.257Z,6.94
2023-01-25T18:55:36.905Z,6.90
2023-01-25T18:58:04.344Z,6.84
2023-01-25T19:00:32.082Z,6.60
2023-01-25T19:02:59.068Z,6.53
2023-01-25T19:05:25.956Z,6.61
2023-01-25T19:07:52.769Z,6.51
2023-01-25T19:10:19.397Z,6.62
2023-01-25T19:12:47.036Z,6.41
2023-01-25T19:15:14.309Z,6.44
2023-01-25T19:17:41.200Z,6.47
2023-01-25T19:20:08.581Z,6.46
2023-01-25T19:22:35.270Z,6.39
2023-01-25T19:25:01.935Z,6.49
2023-01-25T19:27:28.558Z,6.46
2023-01-25T19:29:55.233Z,6.23
2023-01-25T19:32:21.879Z,6.19
2023-01-25T19:34:48.551Z,6.21
2023-01-25T19:37:17.023Z,6.31
2023-01-25T19:39:44.058Z,6.42
2023-01-25T19:42:10.727Z,6.59
2023-01-25T19:44:37.477Z,6.67
2023-01-25T19:47:04.146Z,6.60
2023-01-25T19:49:30.770Z,6.58
2023-01-25T19:51:57.482Z,6.69
2023-01-25T19:54:24.288Z,6.62
2023-01-25T19:56:51.056Z,6.44
2023-01-25T19:59:21.602Z,6.18
2023-01-25T20:01:48.521Z,6.19
2023-01-25T20:04:22.378Z,6.19
2023-01-25T20:06:49.556Z,6.24
2023-01-25T20:09:16.688Z,6.04
2023-01-25T20:11:44.334Z,6.09
2023-01-25T20:14:11.613Z,6.15
2023-01-25T20:16:38.296Z,6.30
2023-01-25T20:19:05.736Z,6.26
2023-01-25T20:21:32.356Z,6.31
2023-01-25T20:24:02.363Z,6.49
2023-01-25T20:26:31.089Z,6.60
2023-01-25T20:28:57.939Z,6.59
2023-01-25T20:31:29.479Z,6.49
2023-01-25T20:33:57.860Z,6.55
2023-01-25T20:36:25.123Z,6.69
2023-01-25T20:38:51.767Z,6.48
2023-01-25T20:41:18.727Z,6.48
2023-01-25T20:43:49.006Z,6.57
2023-01-25T20:46:16.209Z,6.70
2023-01-25T20:48:43.147Z,6.61
2023-01-25T20:51:10.329Z,6.66
2023-01-25T20:53:37.024Z,6.57
2023-01-25T20:56:03.818Z,6.66
2023-01-25T20:58:30.481Z,6.22
2023-01-25T21:00:57.184Z,6.39
2023-01-25T21:03:24.141Z,6.58
2023-01-25T21:05:51.219Z,6.10
2023-01-25T21:08:19.364Z,6.43
2023-01-25T21:10:53.513Z,6.54
2023-01-25T21:13:20.279Z,6.59
2023-01-25T21:16:10.835Z,6.67
2023-01-25T21:18:42.160Z,6.77
2023-01-25T21:21:10.343Z,6.74
2023-01-25T21:23:38.448Z,6.73
2023-01-25T21:26:05.507Z,6.77
2023-01-25T21:28:32.646Z,6.78
2023-01-25T21:31:07.469Z,6.79
2023-01-25T21:33:34.172Z,6.92
2023-01-25T21:36:01.385Z,6.95
2023-01-25T21:38:28.027Z,6.94
2023-01-25T21:41:00.471Z,7.03
2023-01-25T21:43:27.193Z,7.00
2023-01-25T21:45:53.872Z,7.00
2023-01-25T21:48:20.508Z,6.96
2023-01-25T21:50:47.124Z,6.83
2023-01-25T21:53:13.796Z,6.82
2023-01-25T21:55:40.462Z,6.79
2023-01-25T21:58:07.101Z,6.73
2023-01-25T22:00:33.720Z,6.89
2023-01-25T22:03:00.348Z,6.88
2023-01-25T22:05:27.020Z,6.85
2023-01-25T22:07:53.787Z,6.84
2023-01-25T22:10:20.480Z,6.83
2023-01-25T22:12:47.132Z,6.76
2023-01-25T22:15:13.796Z,6.85
2023-01-25T22:17:40.481Z,6.82
2023-01-25T22:20:07.393Z,7.03
2023-01-25T22:22:34.079Z,7.08
2023-01-25T22:25:00.690Z,7.11
2023-01-25T22:27:30.831Z,7.10
2023-01-25T22:29:57.441Z,6.88
2023-01-25T22:32:24.080Z,6.74
2023-01-25T22:34:50.689Z,6.75
2023-01-25T22:37:17.358Z,6.72
2023-01-25T22:39:43.977Z,6.90
2023-01-25T22:42:10.891Z,6.99
2023-01-25T22:44:37.771Z,7.06
2023-01-25T22:47:04.436Z,6.88
2023-01-25T22:49:31.151Z,6.93
2023-01-25T22:51:57.747Z,6.67
2023-01-25T22:54:24.410Z,6.69
2023-01-25T22:56:51.071Z,6.83
2023-01-25T22:59:17.739Z,6.87
2023-01-25T23:01:44.341Z,6.84
2023-01-25T23:04:11.015Z,6.88
2023-01-25T23:06:37.659Z,6.81
2023-01-25T23:09:05.340Z,6.73
2023-01-25T23:11:34.125Z,6.82
2023-01-25T23:14:01.012Z,6.70
2023-01-25T23:16:27.746Z,6.75
2023-01-25T23:18:54.393Z,6.77
2023-01-25T23:21:22.142Z,6.87
2023-01-25T23:23:48.963Z,6.94
2023-01-25T23:26:15.615Z,6.93
2023-01-25T23:28:42.326Z,6.80
2023-01-25T23:31:13.192Z,6.88
2023-01-25T23:33:40.314Z,6.92
2023-01-25T23:36:10.619Z,6.94
2023-01-25T23:38:37.848Z,7.03
2023-01-25T23:41:05.434Z,7.06
2023-01-25T23:43:32.327Z,7.04
2023-01-25T23:45:59.020Z,7.08
2023-01-25T23:48:25.817Z,7.03
2023-01-25T23:50:52.647Z,6.97
2023-01-25T23:53:19.444Z,7.10
2023-01-25T23:56:02.556Z,7.10
2023-01-25T23:58:29.626Z,7.12
